createdAt,value
2023-01-18T00:01:24.937Z,99128.91
2023-01-18T00:05:37.172Z,99135.82
2023-01-18T00:09:49.461Z,99128.87
2023-01-18T00:14:01.633Z,99127.83
2023-01-18T00:18:17.067Z,99133.69
2023-01-18T00:22:29.590Z,99142.13
2023-01-18T00:26:44.757Z,99142.13
2023-01-18T00:30:50.122Z,99138.30
2023-01-18T00:34:56.915Z,99135.70
2023-01-18T00:39:08.947Z,99135.36
2023-01-18T00:43:21.412Z,99127.39
2023-01-18T00:47:33.649Z,99127.92
2023-01-18T00:51:46.714Z,99132.55
2023-01-18T00:55:58.654Z,99133.58
2023-01-18T01:00:05.212Z,99139.60
2023-01-18T01:04:15.859Z,99144.08
2023-01-18T01:08:27.831Z,99141.46
2023-01-18T01:12:38.034Z,99141.11
2023-01-18T01:16:48.425Z,99149.04
2023-01-18T01:20:58.693Z,99143.30
2023-01-18T01:25:09.180Z,99149.27
2023-01-18T01:29:21.772Z,99150.80
2023-01-18T01:33:25.914Z,99148.85
2023-01-18T01:37:37.738Z,99163.85
2023-01-18T01:41:43.575Z,99191.27
2023-01-18T01:45:55.332Z,99201.98
2023-01-18T01:50:10.676Z,99204.57
2023-01-18T01:54:23.613Z,99210.60
2023-01-18T01:58:38.636Z,99222.16
2023-01-18T02:02:50.657Z,99225.08
2023-01-18T02:07:19.470Z,99219.17
2023-01-18T02:11:31.637Z,99221.71
2023-01-18T02:15:44.610Z,99216.49
2023-01-18T02:19:55.177Z,99208.88
2023-01-18T02:24:07.388Z,99209.00
2023-01-18T02:28:19.312Z,99205.70
2023-01-18T02:32:37.667Z,99204.48
2023-01-18T02:36:44.584Z,99201.54
2023-01-18T02:41:02.656Z,99201.86
2023-01-18T02:45:15.826Z,99214.55
2023-01-18T02:49:49.541Z,99218.56
2023-01-18T02:54:00.970Z,99234.55
2023-01-18T02:58:13.423Z,99244.13
2023-01-18T03:02:25.600Z,99246.88
2023-01-18T03:06:39.714Z,99246.14
2023-01-18T03:10:51.858Z,99238.48
2023-01-18T03:15:03.884Z,99233.66
2023-01-18T03:19:21.694Z,99241.08
2023-01-18T03:23:35.270Z,99239.38
2023-01-18T03:27:46.973Z,99242.16
2023-01-18T03:31:57.813Z,99250.95
2023-01-18T03:36:10.274Z,99258.53
2023-01-18T03:40:25.175Z,99263.19
2023-01-18T03:44:29.490Z,99257.27
2023-01-18T03:48:41.911Z,99260.89
2023-01-18T03:53:05.354Z,99263.35
2023-01-18T03:57:14.314Z,99261.50
2023-01-18T04:01:26.636Z,99257.08
2023-01-18T04:09:59.157Z,99260.17
2023-01-18T04:14:11.160Z,99262.77
2023-01-18T04:18:23.614Z,99265.17
2023-01-18T04:22:35.782Z,99254.13
2023-01-18T04:26:48.140Z,99246.20
2023-01-18T04:30:59.897Z,99239.15
2023-01-18T04:35:11.897Z,99240.70
2023-01-18T04:39:24.173Z,99234.48
2023-01-18T04:43:35.111Z,99236.92
2023-01-18T04:47:47.253Z,99234.70
2023-01-18T04:51:59.625Z,99231.64
2023-01-18T04:56:11.734Z,99231.96
2023-01-18T05:00:23.429Z,99231.41
2023-01-18T05:04:35.710Z,99238.98
2023-01-18T05:08:47.916Z,99245.50
2023-01-18T05:13:00.527Z,99252.56
2023-01-18T05:17:13.671Z,99254.28
2023-01-18T05:21:25.729Z,99269.14
2023-01-18T05:25:37.688Z,99285.37
2023-01-18T05:29:49.832Z,99294.05
2023-01-18T05:34:02.049Z,99298.70
2023-01-18T05:38:14.320Z,99297.15
2023-01-18T05:42:26.387Z,99292.34
2023-01-18T05:46:38.538Z,99290.79
2023-01-18T05:50:50.809Z,99290.12
2023-01-18T05:55:02.692Z,99290.14
2023-01-18T05:59:14.856Z,99290.16
2023-01-18T06:03:40.677Z,99290.65
2023-01-18T06:07:53.011Z,99288.91
2023-01-18T06:12:04.877Z,99292.54
2023-01-18T06:16:16.968Z,99298.17
2023-01-18T06:20:29.192Z,99300.36
2023-01-18T06:24:41.998Z,99309.17
2023-01-18T06:28:54.215Z,99303.85
2023-01-18T06:33:05.987Z,99306.33
2023-01-18T06:37:12.976Z,99308.96
2023-01-18T06:41:25.119Z,99311.59
2023-01-18T06:45:29.829Z,99302.64
2023-01-18T06:49:56.076Z,99298.70
2023-01-18T06:54:08.242Z,99302.54
2023-01-18T06:58:13.377Z,99299.43
2023-01-18T07:02:25.732Z,99302.36
2023-01-18T07:06:38.394Z,99315.17
2023-01-18T07:10:50.732Z,99317.43
2023-01-18T07:15:12.750Z,99321.76
2023-01-18T07:19:32.278Z,99331.31
2023-01-18T07:23:44.818Z,99334.66
2023-01-18T07:27:56.883Z,99336.92
2023-01-18T07:32:09.259Z,99339.04
2023-01-18T07:36:31.592Z,99343.21
2023-01-18T07:40:43.442Z,99345.34
2023-01-18T07:44:55.630Z,99346.27
2023-01-18T07:49:07.834Z,99348.06
2023-01-18T07:53:20.143Z,99351.91
2023-01-18T07:57:25.128Z,99349.38
2023-01-18T08:01:31.682Z,99345.94
2023-01-18T08:06:03.110Z,99345.60
2023-01-18T08:09:59.101Z,99342.20
2023-01-18T08:14:11.714Z,99341.21
2023-01-18T08:18:24.317Z,99346.80
2023-01-18T08:22:54.703Z,99356.33
2023-01-18T08:27:06.310Z,99358.54
2023-01-18T08:31:18.559Z,99344.23
2023-01-18T08:35:31.195Z,99339.80
2023-01-18T08:39:43.758Z,99338.12
2023-01-18T08:43:56.310Z,99336.95
2023-01-18T08:48:08.489Z,99331.80
2023-01-18T08:52:12.575Z,99331.68
2023-01-18T08:56:24.899Z,99339.02
2023-01-18T09:00:36.783Z,99337.35
2023-01-18T09:04:49.505Z,99340.17
2023-01-18T09:09:01.915Z,99342.84
2023-01-18T09:13:07.101Z,99342.21
2023-01-18T09:17:13.967Z,99345.74
2023-01-18T09:21:28.585Z,99345.66
2023-01-18T09:25:40.709Z,99355.09
2023-01-18T09:29:52.970Z,99353.77
2023-01-18T09:34:18.576Z,99341.20
2023-01-18T09:38:38.255Z,99353.55
2023-01-18T09:42:44.799Z,99355.17
2023-01-18T09:47:11.134Z,99348.50
2023-01-18T09:51:23.276Z,99336.63
2023-01-18T09:55:37.944Z,99340.30
2023-01-18T10:00:00.955Z,99341.92
2023-01-18T10:04:13.115Z,99334.56
2023-01-18T10:08:31.505Z,99329.79
2023-01-18T10:12:43.909Z,99321.67
2023-01-18T10:16:56.432Z,99313.90
2023-01-18T10:21:06.944Z,99320.35
2023-01-18T10:25:17.656Z,99330.41
2023-01-18T10:29:28.612Z,99326.61
2023-01-18T10:33:41.109Z,99306.16
2023-01-18T10:37:36.529Z,99298.56
2023-01-18T10:41:50.887Z,99308.47
2023-01-18T10:46:00.214Z,99305.02
2023-01-18T10:50:10.705Z,99301.39
2023-01-18T10:54:23.152Z,99301.58
2023-01-18T10:58:35.618Z,99304.71
2023-01-18T11:02:47.825Z,99300.24
2023-01-18T11:07:00.097Z,99292.98
2023-01-18T11:11:12.192Z,99291.61
2023-01-18T11:15:14.308Z,99285.39
2023-01-18T11:19:21.312Z,99283.16
2023-01-18T11:23:36.501Z,99283.89
2023-01-18T11:27:48.540Z,99286.34
2023-01-18T11:32:00.771Z,99295.02
2023-01-18T11:36:15.695Z,99300.41
2023-01-18T11:40:30.072Z,99296.27
2023-01-18T11:44:48.366Z,99293.33
2023-01-18T11:49:00.555Z,99292.29
2023-01-18T11:53:25.132Z,99290.55
2023-01-18T11:57:37.110Z,99286.38
2023-01-18T12:01:48.195Z,99285.34
2023-01-18T12:06:03.510Z,99284.47
2023-01-18T12:10:25.412Z,99283.42
2023-01-18T12:14:24.393Z,99280.14
2023-01-18T12:18:34.977Z,99268.33
2023-01-18T12:22:58.556Z,99268.68
2023-01-18T12:27:22.356Z,99276.49
2023-01-18T12:31:32.964Z,99279.27
2023-01-18T12:35:45.152Z,99285.86
2023-01-18T12:40:09.708Z,99287.77
2023-01-18T12:44:14.093Z,99283.41
2023-01-18T12:48:21.944Z,99286.17
2023-01-18T12:52:35.381Z,99289.81
2023-01-18T12:56:45.752Z,99282.70
2023-01-18T13:01:00.653Z,99287.90
2023-01-18T13:05:06.137Z,99294.50
2023-01-18T13:09:20.315Z,99301.59
2023-01-18T13:13:23.250Z,99301.59
2023-01-18T13:17:06.544Z,99302.63
2023-01-18T13:21:18.790Z,99296.55
2023-01-18T13:25:30.595Z,99296.71
2023-01-18T13:30:07.676Z,99296.19
2023-01-18T13:34:19.033Z,99296.88
2023-01-18T13:38:41.334Z,99296.54
2023-01-18T13:42:57.151Z,99295.33
2023-01-18T13:47:09.794Z,99300.17
2023-01-18T13:51:22.034Z,99296.00
2023-01-18T13:55:34.319Z,99302.05
2023-01-18T13:59:52.535Z,99300.15
2023-01-18T14:04:07.556Z,99300.13
2023-01-18T14:08:19.836Z,99305.65
2023-01-18T14:12:32.159Z,99303.05
2023-01-18T14:16:45.049Z,99305.27
2023-01-18T14:20:57.679Z,99301.80
2023-01-18T14:25:09.652Z,99296.23
2023-01-18T14:29:16.430Z,99289.45
2023-01-18T14:33:34.880Z,99292.92
2023-01-18T14:37:41.900Z,99296.70
2023-01-18T14:42:07.859Z,99309.70
2023-01-18T14:46:34.489Z,99309.17
2023-01-18T14:50:47.957Z,99314.86
2023-01-18T14:55:18.560Z,99317.96
2023-01-18T14:59:24.697Z,99316.05
2023-01-18T15:03:36.978Z,99318.30
2023-01-18T15:07:57.552Z,99316.73
2023-01-18T15:12:09.896Z,99326.91
2023-01-18T15:16:17.766Z,99335.73
2023-01-18T15:20:35.961Z,99348.91
2023-01-18T15:24:48.434Z,99352.35
2023-01-18T15:28:52.499Z,99357.02
2023-01-18T15:33:04.933Z,99359.96
2023-01-18T15:37:17.573Z,99357.52
2023-01-18T15:41:30.411Z,99360.45
2023-01-18T15:45:27.268Z,99361.84
2023-01-18T15:49:39.414Z,99358.20
2023-01-18T15:53:51.394Z,99363.06
2023-01-18T15:58:17.438Z,99370.50
2023-01-18T16:07:14.394Z,99375.00
2023-01-18T16:11:45.581Z,99371.88
2023-01-18T16:16:03.672Z,99375.67
2023-01-18T16:20:15.436Z,99375.85
2023-01-18T16:24:27.800Z,99381.55
2023-01-18T16:28:25.107Z,99381.02
2023-01-18T16:32:36.899Z,99384.64
2023-01-18T16:36:59.176Z,99384.13
2023-01-18T16:41:11.491Z,99388.80
2023-01-18T16:45:38.244Z,99393.28
2023-01-18T16:49:50.637Z,99390.85
2023-01-18T16:54:03.053Z,99387.38
2023-01-18T16:58:15.799Z,99386.85
2023-01-18T17:02:41.848Z,99388.73
2023-01-18T17:06:55.807Z,99388.05
2023-01-18T17:11:08.356Z,99393.24
2023-01-18T17:15:20.528Z,99397.09
2023-01-18T17:19:33.228Z,99395.48
2023-01-18T17:23:47.964Z,99394.98
2023-01-18T17:27:46.011Z,99395.66
2023-01-18T17:31:56.203Z,99398.10
2023-01-18T17:36:09.271Z,99396.36
2023-01-18T17:40:30.960Z,99398.44
2023-01-18T17:44:51.881Z,99401.20
2023-01-18T17:49:04.354Z,99405.17
2023-01-18T17:53:16.056Z,99407.42
2023-01-18T17:57:28.518Z,99407.77
2023-01-18T18:01:36.641Z,99413.64
2023-01-18T18:05:49.079Z,99408.09
2023-01-18T18:10:03.293Z,99412.92
2023-01-18T18:14:11.946Z,99410.17
2023-01-18T18:18:24.419Z,99409.30
2023-01-18T18:22:31.350Z,99420.20
2023-01-18T18:26:43.798Z,99422.09
2023-01-18T18:30:55.840Z,99425.73
2023-01-18T18:35:09.520Z,99429.53
2023-01-18T18:39:23.302Z,99440.77
2023-01-18T18:43:49.129Z,99440.41
2023-01-18T18:48:20.110Z,99443.70
2023-01-18T18:52:31.776Z,99451.48
2023-01-18T18:56:43.894Z,99457.03
2023-01-18T19:00:56.338Z,99459.96
2023-01-18T19:05:08.921Z,99467.30
2023-01-18T19:09:21.141Z,99476.92
2023-01-18T19:13:33.232Z,99476.67
2023-01-18T19:17:45.462Z,99487.28
2023-01-18T19:21:57.831Z,99493.52
2023-01-18T19:26:10.109Z,99496.27
2023-01-18T19:30:22.294Z,99497.11
2023-01-18T19:34:48.559Z,99497.62
2023-01-18T19:39:02.271Z,99505.91
2023-01-18T19:43:15.495Z,99504.52
2023-01-18T19:47:41.541Z,99505.21
2023-01-18T19:57:23.782Z,99514.88
2023-01-18T20:01:37.392Z,99519.17
2023-01-18T20:05:50.637Z,99520.58
2023-01-18T20:10:03.189Z,99519.87
2023-01-18T20:14:16.551Z,99525.60
2023-01-18T20:18:29.287Z,99526.10
2023-01-18T20:22:33.571Z,99528.70
2023-01-18T20:26:41.913Z,99527.65
2023-01-18T20:30:54.899Z,99532.13
2023-01-18T20:35:04.076Z,99535.58
2023-01-18T20:39:16.848Z,99536.77
2023-01-18T20:43:29.114Z,99546.45
2023-01-18T20:47:41.033Z,99549.02
2023-01-18T20:51:53.444Z,99561.63
2023-01-18T20:56:08.253Z,99567.17
2023-01-18T21:00:24.667Z,99583.59
2023-01-18T21:04:36.812Z,99594.82
2023-01-18T21:09:07.980Z,99607.26
2023-01-18T21:13:19.652Z,99618.82
2023-01-18T21:17:32.736Z,99627.48
2023-01-18T21:21:45.430Z,99639.77
2023-01-18T21:25:57.538Z,99647.02
2023-01-18T21:30:10.254Z,99656.35
2023-01-18T21:34:22.580Z,99659.89
2023-01-18T21:38:35.864Z,99674.27
2023-01-18T21:42:59.599Z,99685.87
2023-01-18T21:47:04.402Z,99690.05
2023-01-18T21:51:28.807Z,99692.33
2023-01-18T21:55:36.202Z,99698.45
2023-01-18T21:59:48.363Z,99701.89
2023-01-18T22:04:00.639Z,99697.29
2023-01-18T22:08:13.209Z,99705.88
2023-01-18T22:12:25.758Z,99708.63
2023-01-18T22:16:37.535Z,99710.07
2023-01-18T22:21:04.007Z,99714.45
2023-01-18T22:25:17.024Z,99721.55
2023-01-18T22:29:29.115Z,99728.65
2023-01-18T22:33:41.459Z,99737.12
2023-01-18T22:37:53.546Z,99742.39
2023-01-18T22:46:34.767Z,99755.66
2023-01-18T22:50:46.963Z,99759.81
2023-01-18T22:54:58.865Z,99763.92
2023-01-18T22:59:10.807Z,99772.83
2023-01-18T23:03:23.039Z,99776.12
2023-01-18T23:07:35.027Z,99779.48
2023-01-18T23:11:51.983Z,99783.06
2023-01-18T23:16:16.642Z,99798.61
2023-01-18T23:20:29.348Z,99806.66
2023-01-18T23:24:41.855Z,99815.55
2023-01-18T23:29:05.886Z,99817.27
2023-01-18T23:33:17.871Z,99816.42
2023-01-18T23:37:29.738Z,99822.11
2023-01-18T23:41:40.559Z,99823.72
2023-01-18T23:45:45.593Z,99827.80
2023-01-18T23:49:48.302Z,99830.61
2023-01-18T23:53:58.782Z,99840.84
2023-01-18T23:58:01.893Z,99849.41
